Nyk Maria — 3FER3 — position and weather

sailwx.info

Track history (hours):
 
Tides and Currents Weather Stations Pressure Air Temp Water Temp Dewpoint Dewpoint Depression Visibility Wind Speed Wind Dir Waves Ship Positions

Nyk Maria

Last reported at 2018-Feb-01 19:30 UTC. Time now 2018-Feb-23 04:42 UTC.
Position N 30°31' W 116°47'.
Warning: this ship's position is 21 days out of date.

Length 210 m; draft 8.1 m.

Type: Cargo ship. MMSI: 354918000.

Date/timePositionNaut miles runAvg speedWind from/ knotsBaromVisibWave heightAir tempDewpointWater temp
2018-Feb-01 19:30N 30°31' W 116°47'713.1
2018-Feb-01 18:59N 30°37' W 116°49'613.2
2018-Feb-01 18:30N 30°43' W 116°52'612.9
2018-Feb-01 18:00N 30°49' W 116°55'9213.1
2018-Feb-01 11:00N 32°16' W 117°30'613.0
2018-Feb-01 10:31N 32°22' W 117°33'713.2
2018-Feb-01 10:01N 32°28' W 117°35'713.2
2018-Feb-01 09:31N 32°34' W 117°38'612.8
2018-Feb-01 09:00N 32°40' W 117°41'612.2
2018-Feb-01 08:30N 32°46' W 117°45'1111.2
2018-Feb-01 07:31N 32°55' W 117°51'611.0
2018-Feb-01 07:00N 33°00' W 117°55'511.0
2018-Feb-01 06:31N 33°05' W 117°57'611.2
2018-Feb-01 06:00N 33°10' W 118°00'611.2
2018-Feb-01 05:30N 33°15' W 118°04'611.2
2018-Feb-01 05:00N 33°20' W 118°07'611.3
2018-Feb-01 04:31N 33°25' W 118°09'611.4
2018-Feb-01 03:59N 33°31' W 118°12'1110.9
2018-Feb-01 03:00N 33°41' W 118°15'3 7.0
2018-Feb-01 02:31N 33°44' W 118°17'1 3.0
2018-Feb-01 02:01N 33°46' W 118°15'0 0.0
2018-Feb-01 01:28N 33°46' W 118°15'0 0.0
2018-Feb-01 00:58N 33°46' W 118°15'0 0.0
2018-Feb-01 00:28N 33°46' W 118°15'0 0.0
2018-Jan-31 23:58N 33°46' W 118°15'0 0.0
2018-Jan-31 22:58N 33°46' W 118°15'0 0.0
2018-Jan-31 22:25N 33°46' W 118°15'0 0.0
2018-Jan-31 20:58N 33°46' W 118°15'0 0.0
2018-Jan-31 20:28N 33°46' W 118°15'0 0.0
2018-Jan-31 19:58N 33°46' W 118°15'0 0.0
2018-Jan-31 19:28N 33°46' W 118°15'0 0.0
2018-Jan-31 18:58N 33°46' W 118°15'0 0.0
2018-Jan-31 18:28N 33°46' W 118°15'0 0.0
2018-Jan-31 17:58N 33°46' W 118°15'0 0.0
2018-Jan-31 17:28N 33°46' W 118°15'0 0.0
2018-Jan-31 16:58N 33°46' W 118°15'0 0.0
2018-Jan-31 16:28N 33°46' W 118°15'0 0.0
2018-Jan-31 15:58N 33°46' W 118°15'0 0.0
2018-Jan-31 15:25N 33°46' W 118°15'0 0.0
2018-Jan-31 14:58N 33°46' W 118°15'0 0.0
2018-Jan-31 14:28N 33°46' W 118°15'0 0.0
2018-Jan-31 12:58N 33°46' W 118°15'0 0.0
2018-Jan-31 12:28N 33°46' W 118°15'0 0.0
2018-Jan-31 11:58N 33°46' W 118°15'0 0.0
2018-Jan-31 11:28N 33°46' W 118°15'0 0.0
2018-Jan-31 10:58N 33°46' W 118°15'0 0.0
2018-Jan-31 10:28N 33°46' W 118°15'0 0.0
2018-Jan-31 09:58N 33°46' W 118°15'0 0.0
2018-Jan-31 09:25N 33°46' W 118°15'0 0.0
2018-Jan-31 08:52N 33°46' W 118°15'0 0.0
2018-Jan-31 08:28N 33°46' W 118°15'0 0.0
2018-Jan-31 07:58N 33°46' W 118°15'0 0.0
2018-Jan-31 07:28N 33°46' W 118°15'0 0.0
2018-Jan-31 06:58N 33°46' W 118°15'0 0.0
2018-Jan-31 06:28N 33°46' W 118°15'0 0.0
2018-Jan-31 05:58N 33°46' W 118°15'0 0.0
2018-Jan-31 05:28N 33°46' W 118°15'0 0.0
2018-Jan-31 04:55N 33°46' W 118°15'0 0.0
2018-Jan-31 04:28N 33°46' W 118°15'0 0.0
2018-Jan-31 03:58N 33°46' W 118°15'0 0.0
2018-Jan-31 03:28N 33°46' W 118°15'0 0.0
2018-Jan-31 02:55N 33°46' W 118°15'0 0.0
2018-Jan-31 02:28N 33°46' W 118°15'0 0.0
2018-Jan-31 01:58N 33°46' W 118°15'0 0.0
2018-Jan-31 01:28N 33°46' W 118°15'0 0.0
2018-Jan-31 00:58N 33°46' W 118°15'0 0.0
2018-Jan-30 23:58N 33°46' W 118°15'0 0.0
2018-Jan-30 23:28N 33°46' W 118°15'0 0.0
2018-Jan-30 22:58N 33°46' W 118°15'1 1.9
2018-Jan-30 22:30N 33°45' W 118°16'7 6.6
2018-Jan-30 21:30N 33°39' W 118°13'3 6.1
2018-Jan-30 21:00N 33°37' W 118°11'4 8.6
2018-Jan-30 20:30N 33°33' W 118°09'4 7.8
2018-Jan-30 20:00N 33°29' W 118°07'510.3
2018-Jan-30 19:30N 33°24' W 118°05'510.5
2018-Jan-30 19:00N 33°19' W 118°03'510.5
2018-Jan-30 18:29N 33°14' W 117°60'510.0
2018-Jan-30 18:00N 33°10' W 117°57'5 9.2
2018-Jan-30 17:28N 33°06' W 117°55'510.6
2018-Jan-30 17:00N 33°01' W 117°52'510.7
2018-Jan-30 16:30N 32°56' W 117°50'611.2
2018-Jan-30 16:00N 32°51' W 117°47'5 9.9
2018-Jan-30 15:30N 32°47' W 117°44'511.1
2018-Jan-30 15:00N 32°42' W 117°41'611.2
2018-Jan-30 14:30N 32°36' W 117°39'  
Track history (hours):
 
Tides and Currents Weather Stations Pressure Air Temp Water Temp Dewpoint Dewpoint Depression Visibility Wind Speed Wind Dir Waves Ship Positions

Nyk Maria

Last reported at 2018-Feb-01 19:30 UTC. Time now 2018-Feb-23 04:42 UTC.
Position N 30°31' W 116°47'.
Warning: this ship's position is 21 days out of date.

Length 210 m; draft 8.1 m.

Type: Cargo ship. MMSI: 354918000.

Date/timePositionNaut miles runAvg speedWind from/ knotsBaromVisibWave heightAir tempDewpointWater temp
2018-Feb-01 19:30N 30°31' W 116°47'713.1
2018-Feb-01 18:59N 30°37' W 116°49'613.2
2018-Feb-01 18:30N 30°43' W 116°52'612.9
2018-Feb-01 18:00N 30°49' W 116°55'9213.1
2018-Feb-01 11:00N 32°16' W 117°30'613.0
2018-Feb-01 10:31N 32°22' W 117°33'713.2
2018-Feb-01 10:01N 32°28' W 117°35'713.2
2018-Feb-01 09:31N 32°34' W 117°38'612.8
2018-Feb-01 09:00N 32°40' W 117°41'612.2
2018-Feb-01 08:30N 32°46' W 117°45'1111.2
2018-Feb-01 07:31N 32°55' W 117°51'611.0
2018-Feb-01 07:00N 33°00' W 117°55'511.0
2018-Feb-01 06:31N 33°05' W 117°57'611.2
2018-Feb-01 06:00N 33°10' W 118°00'611.2
2018-Feb-01 05:30N 33°15' W 118°04'611.2
2018-Feb-01 05:00N 33°20' W 118°07'611.3
2018-Feb-01 04:31N 33°25' W 118°09'611.4
2018-Feb-01 03:59N 33°31' W 118°12'1110.9
2018-Feb-01 03:00N 33°41' W 118°15'3 7.0
2018-Feb-01 02:31N 33°44' W 118°17'1 3.0
2018-Feb-01 02:01N 33°46' W 118°15'0 0.0
2018-Feb-01 01:28N 33°46' W 118°15'0 0.0
2018-Feb-01 00:58N 33°46' W 118°15'0 0.0
2018-Feb-01 00:28N 33°46' W 118°15'0 0.0
2018-Jan-31 23:58N 33°46' W 118°15'0 0.0
2018-Jan-31 22:58N 33°46' W 118°15'0 0.0
2018-Jan-31 22:25N 33°46' W 118°15'0 0.0
2018-Jan-31 20:58N 33°46' W 118°15'0 0.0
2018-Jan-31 20:28N 33°46' W 118°15'0 0.0
2018-Jan-31 19:58N 33°46' W 118°15'0 0.0
2018-Jan-31 19:28N 33°46' W 118°15'0 0.0
2018-Jan-31 18:58N 33°46' W 118°15'0 0.0
2018-Jan-31 18:28N 33°46' W 118°15'0 0.0
2018-Jan-31 17:58N 33°46' W 118°15'0 0.0
2018-Jan-31 17:28N 33°46' W 118°15'0 0.0
2018-Jan-31 16:58N 33°46' W 118°15'0 0.0
2018-Jan-31 16:28N 33°46' W 118°15'0 0.0
2018-Jan-31 15:58N 33°46' W 118°15'0 0.0
2018-Jan-31 15:25N 33°46' W 118°15'0 0.0
2018-Jan-31 14:58N 33°46' W 118°15'0 0.0
2018-Jan-31 14:28N 33°46' W 118°15'0 0.0
2018-Jan-31 12:58N 33°46' W 118°15'0 0.0
2018-Jan-31 12:28N 33°46' W 118°15'0 0.0
2018-Jan-31 11:58N 33°46' W 118°15'0 0.0
2018-Jan-31 11:28N 33°46' W 118°15'0 0.0
2018-Jan-31 10:58N 33°46' W 118°15'0 0.0
2018-Jan-31 10:28N 33°46' W 118°15'0 0.0
2018-Jan-31 09:58N 33°46' W 118°15'0 0.0
2018-Jan-31 09:25N 33°46' W 118°15'0 0.0
2018-Jan-31 08:52N 33°46' W 118°15'0 0.0
2018-Jan-31 08:28N 33°46' W 118°15'0 0.0
2018-Jan-31 07:58N 33°46' W 118°15'0 0.0
2018-Jan-31 07:28N 33°46' W 118°15'0 0.0
2018-Jan-31 06:58N 33°46' W 118°15'0 0.0
2018-Jan-31 06:28N 33°46' W 118°15'0 0.0
2018-Jan-31 05:58N 33°46' W 118°15'0 0.0
2018-Jan-31 05:28N 33°46' W 118°15'0 0.0
2018-Jan-31 04:55N 33°46' W 118°15'0 0.0
2018-Jan-31 04:28N 33°46' W 118°15'0 0.0
2018-Jan-31 03:58N 33°46' W 118°15'0 0.0
2018-Jan-31 03:28N 33°46' W 118°15'0 0.0
2018-Jan-31 02:55N 33°46' W 118°15'0 0.0
2018-Jan-31 02:28N 33°46' W 118°15'0 0.0
2018-Jan-31 01:58N 33°46' W 118°15'0 0.0
2018-Jan-31 01:28N 33°46' W 118°15'0 0.0
2018-Jan-31 00:58N 33°46' W 118°15'0 0.0
2018-Jan-30 23:58N 33°46' W 118°15'0 0.0
2018-Jan-30 23:28N 33°46' W 118°15'0 0.0
2018-Jan-30 22:58N 33°46' W 118°15'1 1.9
2018-Jan-30 22:30N 33°45' W 118°16'7 6.6
2018-Jan-30 21:30N 33°39' W 118°13'3 6.1
2018-Jan-30 21:00N 33°37' W 118°11'4 8.6
2018-Jan-30 20:30N 33°33' W 118°09'4 7.8
2018-Jan-30 20:00N 33°29' W 118°07'510.3
2018-Jan-30 19:30N 33°24' W 118°05'510.5
2018-Jan-30 19:00N 33°19' W 118°03'510.5
2018-Jan-30 18:29N 33°14' W 117°60'510.0
2018-Jan-30 18:00N 33°10' W 117°57'5 9.2
2018-Jan-30 17:28N 33°06' W 117°55'510.6
2018-Jan-30 17:00N 33°01' W 117°52'510.7
2018-Jan-30 16:30N 32°56' W 117°50'611.2
2018-Jan-30 16:00N 32°51' W 117°47'5 9.9
2018-Jan-30 15:30N 32°47' W 117°44'511.1
2018-Jan-30 15:00N 32°42' W 117°41'611.2
2018-Jan-30 14:30N 32°36' W 117°39'  

Dump ship's entire track history